Time;durP1;ratioP1;P1;durP2;ratioP2;P2;SDS_P1;SDS_P2;PMS_P1;PMS_P2;Temp;Humidity;BMP_temperature;BMP_pressure;BME280_temperature;BME280_humidity;BME280_pressure;Samples;Min_cycle;Max_cycle;Signal;HPM_P1;HPM_P2
2023/04/07 00:02:05;;;;;;;;;1.00;1.00;;;;;20.24;50.53;101120.85;110183;1264;19558;-41
2023/04/07 00:04:32;;;;;;;;;1.50;1.50;;;;;20.24;50.56;101117.02;110255;1251;19546;-44
2023/04/07 00:07:00;;;;;;;;;1.00;1.00;;;;;20.25;50.56;101125.85;110180;1264;20111;-43
2023/04/07 00:09:27;;;;;;;;;1.00;1.00;;;;;20.25;50.64;101129.08;110179;1264;19356;-41
2023/04/07 00:11:55;;;;;;;;;2.00;1.00;;;;;20.24;50.61;101123.34;110138;1251;20819;-41
2023/04/07 00:14:23;;;;;;;;;1.00;1.00;;;;;20.25;50.49;101123.30;110299;1264;19957;-41
2023/04/07 00:16:50;;;;;;;;;1.00;1.00;;;;;20.24;50.51;101119.73;110183;1250;20763;-42
2023/04/07 00:19:17;;;;;;;;;1.00;1.00;;;;;20.25;50.40;101118.20;110195;1264;20174;-42
2023/04/07 00:21:45;;;;;;;;;2.00;2.00;;;;;20.25;50.58;101118.03;110214;1264;19969;-41
2023/04/07 00:24:12;;;;;;;;;2.00;2.00;;;;;20.24;50.49;101115.58;110227;1264;19312;-41
2023/04/07 00:26:40;;;;;;;;;4.00;4.00;;;;;20.23;50.61;101108.64;110235;1264;22248;-42
2023/04/07 00:29:07;;;;;;;;;2.00;2.00;;;;;20.23;50.41;101112.17;110226;1264;20011;-41
2023/04/07 00:31:34;;;;;;;;;1.50;1.50;;;;;20.25;50.56;101108.98;110209;1264;19428;-42
2023/04/07 00:34:02;;;;;;;;;1.00;1.00;;;;;20.24;50.28;101107.58;110198;1264;18456;-42
2023/04/07 00:36:30;;;;;;;;;1.00;1.00;;;;;20.24;50.47;101104.15;110237;1256;19705;-42
2023/04/07 00:38:57;;;;;;;;;2.00;2.00;;;;;20.23;50.34;101098.77;110165;1264;20678;-42
2023/04/07 00:41:25;;;;;;;;;2.00;1.00;;;;;20.23;50.30;101093.90;110199;1251;19636;-41
2023/04/07 00:43:52;;;;;;;;;2.00;2.00;;;;;20.23;50.39;101088.30;110174;1264;19980;-41
2023/04/07 00:46:20;;;;;;;;;2.00;2.00;;;;;20.24;50.39;101088.33;110197;1264;20595;-42
2023/04/07 00:48:47;;;;;;;;;2.00;2.00;;;;;20.23;50.19;101082.84;110183;1264;19975;-40
2023/04/07 00:51:15;;;;;;;;;2.00;2.00;;;;;20.23;50.28;101082.30;110187;1264;18604;-43
2023/04/07 00:53:42;;;;;;;;;1.00;1.00;;;;;20.23;50.30;101086.05;110202;1250;19485;-40
2023/04/07 00:56:10;;;;;;;;;1.00;1.00;;;;;20.22;50.38;101086.36;110203;1257;18322;-42
2023/04/07 00:58:37;;;;;;;;;2.00;2.00;;;;;20.22;50.39;101085.13;110235;1251;19053;-43
2023/04/07 01:01:05;;;;;;;;;2.00;2.00;;;;;20.23;50.27;101078.48;110190;1251;20760;-41
2023/04/07 01:03:32;;;;;;;;;2.00;2.00;;;;;20.23;50.33;101080.67;110094;1251;19959;-42
2023/04/07 01:06:00;;;;;;;;;1.00;1.00;;;;;20.22;50.24;101079.27;110179;1264;20060;-41
2023/04/07 01:08:27;;;;;;;;;1.00;1.00;;;;;20.22;50.32;101077.46;110150;1251;22094;-41
2023/04/07 01:10:55;;;;;;;;;1.00;1.00;;;;;20.22;50.16;101075.65;110097;1264;19634;-41
2023/04/07 01:13:22;;;;;;;;;2.00;2.00;;;;;20.22;50.30;101072.77;110247;1264;18822;-41
2023/04/07 01:15:50;;;;;;;;;1.00;1.00;;;;;20.23;50.32;101073.97;110265;1264;20529;-42
2023/04/07 01:18:17;;;;;;;;;1.00;1.00;;;;;20.22;50.37;101073.73;110218;1250;22583;-41
2023/04/07 01:20:45;;;;;;;;;1.00;1.00;;;;;20.23;50.30;101073.80;110202;1264;18761;-41
2023/04/07 01:23:12;;;;;;;;;1.00;1.00;;;;;20.22;50.29;101072.77;110189;1250;20772;-41
2023/04/07 01:25:40;;;;;;;;;1.00;1.00;;;;;20.21;50.24;101069.05;110182;1264;20935;-42
2023/04/07 01:28:07;;;;;;;;;1.00;1.00;;;;;20.22;50.32;101068.48;110192;1251;19979;-41
2023/04/07 01:30:35;;;;;;;;;1.00;1.00;;;;;20.21;50.19;101059.60;110216;1264;19330;-41
2023/04/07 01:33:02;;;;;;;;;2.00;2.00;;;;;20.20;50.23;101058.08;110199;1264;19581;-42
2023/04/07 01:35:30;;;;;;;;;1.00;1.00;;;;;20.21;50.13;101059.26;110191;1264;18620;-42
2023/04/07 01:37:59;;;;;;;;;1.00;1.00;;;;;20.21;50.16;101056.39;110188;1264;22593;-41
2023/04/07 01:40:26;;;;;;;;;1.00;1.00;;;;;20.22;50.25;101053.41;110217;1264;19592;-42
2023/04/07 01:42:54;;;;;;;;;1.00;1.00;;;;;20.21;50.26;101049.86;110198;1264;19929;-42
2023/04/07 01:45:21;;;;;;;;;1.00;1.00;;;;;20.20;50.12;101049.18;110177;1265;19378;-44
2023/04/07 01:47:49;;;;;;;;;1.33;1.33;;;;;20.21;50.19;101049.12;110207;1251;21538;-42
2023/04/07 01:50:16;;;;;;;;;1.50;1.50;;;;;20.19;50.07;101048.73;110183;1264;19935;-42
2023/04/07 01:52:43;;;;;;;;;1.00;1.00;;;;;20.20;50.14;101046.53;110178;1251;19676;-42
2023/04/07 01:55:11;;;;;;;;;1.00;1.00;;;;;20.20;50.32;101043.60;110180;1265;22154;-42
2023/04/07 01:57:38;;;;;;;;;1.00;1.00;;;;;20.19;50.03;101044.75;110188;1251;20021;-42
2023/04/07 02:00:06;;;;;;;;;1.00;1.00;;;;;20.20;50.13;101047.60;110204;1264;19435;-42
2023/04/07 02:02:33;;;;;;;;;1.50;1.50;;;;;20.19;50.24;101046.55;110172;1264;19793;-41
2023/04/07 02:05:02;;;;;;;;;2.00;1.00;;;;;20.20;50.01;101043.39;110202;1264;19985;-41
2023/04/07 02:07:29;;;;;;;;;1.00;1.00;;;;;20.20;50.17;101041.02;110165;1264;19514;-40
2023/04/07 02:09:57;;;;;;;;;1.00;1.00;;;;;20.19;49.98;101038.60;110174;1264;19552;-42
2023/04/07 02:12:24;;;;;;;;;1.00;1.00;;;;;20.20;50.10;101035.30;110185;1264;20213;-41
2023/04/07 02:14:51;;;;;;;;;2.50;1.00;;;;;20.19;50.20;101035.91;110186;1264;19437;-41
2023/04/07 02:17:19;;;;;;;;;1.00;1.00;;;;;20.19;50.16;101034.66;110186;1251;22194;-40
2023/04/07 02:19:47;;;;;;;;;1.50;1.00;;;;;20.19;50.21;101039.70;110194;1257;23666;-41
2023/04/07 02:22:14;;;;;;;;;1.00;1.00;;;;;20.19;49.98;101033.90;110195;1264;20719;-41
2023/04/07 02:24:42;;;;;;;;;1.00;1.00;;;;;20.19;50.09;101033.23;110231;1250;19715;-41
2023/04/07 02:27:10;;;;;;;;;2.00;1.00;;;;;20.20;50.23;101034.20;110267;1250;19950;-41
2023/04/07 02:29:37;;;;;;;;;1.00;1.00;;;;;20.19;49.95;101031.18;110193;1251;20729;-41
2023/04/07 02:32:05;;;;;;;;;1.00;1.00;;;;;20.19;49.99;101029.03;110201;1264;19511;-41
2023/04/07 02:34:32;;;;;;;;;1.00;1.00;;;;;20.19;50.19;101023.40;110181;1250;18756;-42
2023/04/07 02:37:00;;;;;;;;;1.00;1.00;;;;;20.18;50.05;101021.46;110212;1264;19488;-42
2023/04/07 02:39:27;;;;;;;;;1.00;1.00;;;;;20.19;50.08;101017.41;110181;1264;18387;-43
2023/04/07 02:41:54;;;;;;;;;1.00;1.00;;;;;20.18;49.98;101014.62;110242;1264;18639;-41
2023/04/07 02:44:22;;;;;;;;;1.00;1.00;;;;;20.18;50.12;101010.73;110198;1264;20715;-42
2023/04/07 02:46:49;;;;;;;;;1.00;1.00;;;;;20.19;49.89;101009.48;110194;1251;19559;-43
2023/04/07 02:49:17;;;;;;;;;1.00;1.00;;;;;20.19;50.13;101007.81;110210;1251;20189;-42
2023/04/07 02:51:45;;;;;;;;;1.00;1.00;;;;;20.18;49.98;101006.09;110165;1251;20813;-42
2023/04/07 02:54:13;;;;;;;;;2.00;1.00;;;;;20.18;50.00;101009.89;110163;1251;19573;-42
2023/04/07 02:56:40;;;;;;;;;2.00;1.00;;;;;20.19;50.05;101006.75;110203;1264;19061;-42
2023/04/07 02:59:08;;;;;;;;;1.00;1.00;;;;;20.18;50.07;101005.60;110159;1251;22813;-42
2023/04/07 03:01:35;;;;;;;;;1.00;1.00;;;;;20.18;50.13;101001.96;110193;1264;18544;-42
2023/04/07 03:04:02;;;;;;;;;1.00;1.00;;;;;20.18;49.95;101003.93;110189;1250;19827;-42
2023/04/07 03:06:30;;;;;;;;;1.00;1.00;;;;;20.18;49.96;100998.86;110192;1251;20747;-41
2023/04/07 03:08:57;;;;;;;;;1.50;1.50;;;;;20.17;50.01;101002.75;110191;1257;18587;-39
2023/04/07 03:11:25;;;;;;;;;1.00;1.00;;;;;20.16;49.99;101000.29;110194;1264;18627;-43
2023/04/07 03:13:52;;;;;;;;;1.00;1.00;;;;;20.17;50.09;101002.57;110187;1251;20626;-42
2023/04/07 03:16:20;;;;;;;;;1.00;1.00;;;;;20.17;50.14;101000.08;110198;1264;22345;-42
2023/04/07 03:18:47;;;;;;;;;2.00;2.00;;;;;20.16;49.96;101001.55;110197;1264;18783;-42
2023/04/07 03:21:14;;;;;;;;;1.00;1.00;;;;;20.17;49.98;101010.77;110198;1264;20855;-42
2023/04/07 03:23:42;;;;;;;;;2.00;2.00;;;;;20.17;50.07;101007.77;110188;1264;19542;-42
2023/04/07 03:26:09;;;;;;;;;1.33;1.33;;;;;20.16;50.05;101002.30;110171;1264;19935;-44
2023/04/07 03:28:37;;;;;;;;;1.00;1.00;;;;;20.17;50.03;101005.64;110169;1251;21014;-41
2023/04/07 03:31:04;;;;;;;;;1.00;1.00;;;;;20.18;49.94;101002.71;110184;1264;19567;-41
2023/04/07 03:33:32;;;;;;;;;1.00;1.00;;;;;20.16;50.03;100994.80;110148;1264;19869;-42
2023/04/07 03:35:59;;;;;;;;;1.00;1.00;;;;;20.16;50.01;100996.65;110093;1260;20690;-41
2023/04/07 03:38:27;;;;;;;;;1.00;1.00;;;;;20.17;50.17;100999.17;110230;1251;19694;-40
2023/04/07 03:40:55;;;;;;;;;1.00;1.00;;;;;20.16;50.04;100997.74;110203;1264;22177;-42
2023/04/07 03:43:22;;;;;;;;;1.00;1.00;;;;;20.17;49.91;101000.98;110233;1251;20743;-41
2023/04/07 03:45:50;;;;;;;;;2.00;1.00;;;;;20.18;49.90;101000.50;110221;1260;19931;-42
2023/04/07 03:48:17;;;;;;;;;1.00;1.00;;;;;20.16;50.18;100997.95;110192;1264;18728;-41
2023/04/07 03:50:45;;;;;;;;;1.00;1.00;;;;;20.16;50.11;100994.73;110211;1260;19382;-43
2023/04/07 03:53:15;;;;;;;;;1.00;1.00;;;;;20.16;50.02;100993.27;110174;1250;20383;-41
2023/04/07 03:55:43;;;;;;;;;1.00;1.00;;;;;20.16;50.13;100986.91;110133;1264;22312;-41
2023/04/07 03:58:10;;;;;;;;;1.00;1.00;;;;;20.16;50.01;100987.63;110119;1249;22229;-41
2023/04/07 04:00:38;;;;;;;;;1.00;1.00;;;;;20.15;49.82;100990.79;110151;1251;19648;-41
2023/04/07 04:03:05;;;;;;;;;1.00;1.00;;;;;20.16;49.98;100992.02;110200;1264;22622;-39
2023/04/07 04:05:33;;;;;;;;;1.00;1.00;;;;;20.16;49.99;100994.36;110176;1264;20714;-41
2023/04/07 04:08:00;;;;;;;;;1.00;1.00;;;;;20.16;50.00;100992.53;110208;1251;20012;-42
2023/04/07 04:10:27;;;;;;;;;1.00;1.00;;;;;20.16;49.92;100991.42;110183;1257;22408;-40
2023/04/07 04:12:55;;;;;;;;;2.00;2.00;;;;;20.15;49.94;100989.70;110216;1251;20989;-43
2023/04/07 04:15:23;;;;;;;;;2.00;2.00;;;;;20.15;50.05;100989.36;110202;1264;22319;-42
2023/04/07 04:17:50;;;;;;;;;2.00;2.00;;;;;20.15;49.97;100989.02;110210;1264;19976;-41
2023/04/07 04:20:18;;;;;;;;;2.00;1.00;;;;;20.15;49.96;100990.32;110221;1264;19323;-42
2023/04/07 04:22:45;;;;;;;;;2.00;2.00;;;;;20.15;49.90;100994.80;110178;1251;22242;-42
2023/04/07 04:25:13;;;;;;;;;2.00;2.00;;;;;20.15;49.91;100996.59;110198;1250;22209;-41
2023/04/07 04:27:40;;;;;;;;;1.00;1.00;;;;;20.15;49.98;100998.27;110202;1251;20634;-44
2023/04/07 04:30:08;;;;;;;;;2.00;2.00;;;;;20.15;50.00;100995.55;110225;1251;20902;-42
2023/04/07 04:32:35;;;;;;;;;4.00;4.00;;;;;20.15;49.78;100993.91;110204;1256;19983;-42
2023/04/07 04:35:03;;;;;;;;;1.00;1.00;;;;;20.14;49.80;100993.48;110206;1264;21056;-41
2023/04/07 04:37:31;;;;;;;;;1.00;1.00;;;;;20.14;49.91;100995.61;110201;1264;19590;-41
2023/04/07 04:39:58;;;;;;;;;2.00;2.00;;;;;20.14;49.94;100999.63;110188;1264;19974;-41
2023/04/07 04:42:26;;;;;;;;;2.00;1.00;;;;;20.14;49.88;100996.56;110245;1251;20804;-41
2023/04/07 04:44:54;;;;;;;;;1.00;1.00;;;;;20.13;49.99;100999.02;110286;1264;23281;-41
2023/04/07 04:47:21;;;;;;;;;2.00;1.00;;;;;20.14;50.07;101003.27;110217;1264;18599;-41
2023/04/07 04:49:49;;;;;;;;;2.00;2.00;;;;;20.14;50.00;101001.09;110213;1264;21049;-42
2023/04/07 04:52:16;;;;;;;;;3.00;3.00;;;;;20.14;50.10;101001.44;110216;1264;18296;-42
2023/04/07 04:54:44;;;;;;;;;1.00;1.00;;;;;20.14;49.90;101001.67;110193;1257;20134;-42
2023/04/07 04:57:11;;;;;;;;;1.00;1.00;;;;;20.14;50.02;101002.42;110204;1264;19354;-41
2023/04/07 04:59:41;;;;;;;;;2.00;1.50;;;;;20.13;49.98;101003.67;110221;1251;19672;-41
2023/04/07 05:02:08;;;;;;;;;1.00;1.00;;;;;20.14;49.96;100999.43;110230;1251;22731;-41
2023/04/07 05:04:36;;;;;;;;;2.00;2.00;;;;;20.14;50.04;100997.96;110209;1264;20741;-42
2023/04/07 05:07:04;;;;;;;;;2.00;2.00;;;;;20.15;50.01;100997.14;110252;1251;19697;-43
2023/04/07 05:09:31;;;;;;;;;2.00;2.00;;;;;20.16;49.91;100997.83;110216;1264;19973;-41
2023/04/07 05:12:00;;;;;;;;;2.00;2.00;;;;;20.16;49.98;100996.73;110220;1264;19498;-41
2023/04/07 05:14:28;;;;;;;;;1.00;1.00;;;;;20.15;50.04;100997.90;110196;1264;22841;-42
2023/04/07 05:16:55;;;;;;;;;1.00;1.00;;;;;20.14;49.93;100993.61;110133;1264;20086;-42
2023/04/07 05:19:23;;;;;;;;;1.00;1.00;;;;;20.15;49.97;100996.09;110194;1251;20756;-41
2023/04/07 05:21:50;;;;;;;;;1.00;1.00;;;;;20.16;50.08;101001.58;110216;1264;19518;-43
2023/04/07 05:24:18;;;;;;;;;1.50;1.50;;;;;20.20;49.90;100996.05;110210;1264;18607;-41
2023/04/07 05:26:45;;;;;;;;;2.00;2.00;;;;;20.24;50.18;100998.74;110227;1264;20730;-42
2023/04/07 05:29:12;;;;;;;;;1.00;1.00;;;;;20.23;50.26;101000.23;110222;1264;18376;-42
2023/04/07 05:31:40;;;;;;;;;3.00;2.00;;;;;20.23;50.64;101002.86;110282;1264;18581;-41
2023/04/07 05:34:07;;;;;;;;;2.00;2.00;;;;;20.22;50.66;101003.09;110210;1264;19910;-42
2023/04/07 05:36:35;;;;;;;;;1.00;1.00;;;;;20.21;50.68;101002.12;110214;1264;19611;-42
2023/04/07 05:39:02;;;;;;;;;1.00;1.00;;;;;20.21;50.75;101004.55;110213;1264;18580;-41
2023/04/07 05:41:30;;;;;;;;;2.00;2.00;;;;;20.20;50.78;101006.79;110226;1264;19341;-42
2023/04/07 05:43:57;;;;;;;;;2.00;2.00;;;;;20.19;50.90;101002.20;110182;1251;18400;-41
2023/04/07 05:46:25;;;;;;;;;1.00;1.00;;;;;20.17;50.93;101003.63;110193;1264;18644;-42
2023/04/07 05:48:52;;;;;;;;;1.00;1.00;;;;;20.17;50.86;101001.48;110234;1264;20811;-41
2023/04/07 05:51:20;;;;;;;;;1.00;1.00;;;;;20.18;50.93;101002.67;110222;1264;18458;-41
2023/04/07 05:53:47;;;;;;;;;2.00;2.00;;;;;20.19;50.85;101001.07;110206;1264;18574;-42
2023/04/07 05:56:14;;;;;;;;;1.00;1.00;;;;;20.18;50.68;101000.50;110223;1264;19341;-41
2023/04/07 05:58:42;;;;;;;;;2.00;2.00;;;;;20.18;50.81;101003.70;110213;1257;18861;-41
2023/04/07 06:01:09;;;;;;;;;1.00;1.00;;;;;20.19;50.74;101003.63;110137;1250;19988;-41
2023/04/07 06:03:37;;;;;;;;;2.00;2.00;;;;;20.19;50.69;101002.13;110209;1264;21966;-41
2023/04/07 06:06:05;;;;;;;;;1.00;1.00;;;;;20.20;50.81;101001.76;110205;1264;22259;-42
2023/04/07 06:08:32;;;;;;;;;2.00;2.00;;;;;20.22;50.71;101005.48;110215;1251;19836;-41
2023/04/07 06:11:00;;;;;;;;;2.00;2.00;;;;;20.25;50.70;101000.64;110218;1264;19382;-41
2023/04/07 06:13:28;;;;;;;;;2.00;2.00;;;;;20.23;50.59;101003.17;110215;1264;22765;-40
2023/04/07 06:15:55;;;;;;;;;2.00;1.00;;;;;20.23;50.75;101008.98;110207;1264;18755;-42
2023/04/07 06:18:23;;;;;;;;;2.00;2.00;;;;;20.24;50.88;101010.27;110253;1264;21014;-42
2023/04/07 06:20:50;;;;;;;;;1.67;1.67;;;;;20.25;50.90;101008.38;110235;1251;21488;-41
2023/04/07 06:23:18;;;;;;;;;4.00;2.00;;;;;20.25;51.01;101008.27;110212;1264;18637;-41
2023/04/07 06:25:46;;;;;;;;;2.00;2.00;;;;;20.25;50.97;101006.77;110223;1264;20698;-42
2023/04/07 06:28:14;;;;;;;;;4.00;2.00;;;;;20.25;51.10;101009.59;110199;1264;22363;-41
2023/04/07 06:30:41;;;;;;;;;1.50;1.50;;;;;20.26;51.15;101007.20;110150;1250;19962;-42
2023/04/07 06:33:09;;;;;;;;;1.33;1.33;;;;;20.26;51.25;101009.53;110232;1264;21989;-41
2023/04/07 06:35:37;;;;;;;;;2.00;2.00;;;;;20.26;51.28;101005.74;110291;1264;18455;-42
2023/04/07 06:38:04;;;;;;;;;1.00;1.00;;;;;20.26;51.23;101008.13;110266;1250;20011;-41
2023/04/07 06:40:31;;;;;;;;;1.50;1.50;;;;;20.26;51.25;101013.36;110189;1264;19554;-42
2023/04/07 06:42:59;;;;;;;;;1.00;1.00;;;;;20.25;51.36;101013.14;110152;1264;18723;-41
2023/04/07 06:45:26;;;;;;;;;2.00;2.00;;;;;20.25;51.30;101015.34;110151;1251;20038;-41
2023/04/07 06:47:54;;;;;;;;;2.00;2.00;;;;;20.24;51.37;101020.11;110214;1264;20868;-43
2023/04/07 06:50:21;;;;;;;;;2.00;2.00;;;;;20.24;51.57;101016.64;110164;1251;22200;-42
2023/04/07 06:52:49;;;;;;;;;1.00;1.00;;;;;20.24;51.35;101014.69;110171;1250;22277;-42
2023/04/07 06:55:16;;;;;;;;;2.00;2.00;;;;;20.24;51.43;101017.35;110266;1249;22217;-42
2023/04/07 06:57:44;;;;;;;;;1.00;1.00;;;;;20.26;51.32;101013.95;110266;1264;18368;-41
2023/04/07 07:00:11;;;;;;;;;2.00;2.00;;;;;20.25;51.36;101014.94;110221;1264;19975;-42
2023/04/07 07:02:39;;;;;;;;;1.67;1.67;;;;;20.25;51.16;101016.39;110182;1264;19580;-42
2023/04/07 07:05:07;;;;;;;;;2.00;1.00;;;;;20.26;51.06;101018.84;110207;1264;18460;-41
2023/04/07 07:07:34;;;;;;;;;1.00;1.00;;;;;20.24;51.38;101016.47;110294;1264;19947;-43
2023/04/07 07:10:02;;;;;;;;;2.00;2.00;;;;;20.24;51.28;101011.19;110265;1264;19381;-41
2023/04/07 07:12:29;;;;;;;;;2.00;2.00;;;;;20.27;51.37;101010.04;110220;1250;22062;-42
2023/04/07 07:14:56;;;;;;;;;1.00;1.00;;;;;20.27;51.23;101006.30;110249;1249;18669;-41
2023/04/07 07:17:24;;;;;;;;;4.00;4.00;;;;;20.29;51.07;101009.45;110270;1256;22690;-41
2023/04/07 07:19:51;;;;;;;;;1.00;1.00;;;;;20.30;51.17;101012.05;110279;1251;19521;-41
2023/04/07 07:22:19;;;;;;;;;1.50;1.50;;;;;20.31;51.15;101005.45;110296;1264;18610;-42
2023/04/07 07:24:47;;;;;;;;;2.00;2.00;;;;;20.31;51.21;100998.20;110248;1264;20749;-41
2023/04/07 07:27:14;;;;;;;;;2.00;2.00;;;;;20.30;51.38;100996.23;110275;1251;19848;-41
2023/04/07 07:29:42;;;;;;;;;4.00;4.00;;;;;20.32;51.27;100995.17;110279;1264;20136;-41
2023/04/07 07:32:09;;;;;;;;;3.00;3.00;;;;;20.32;50.89;100994.80;110236;1264;19560;-43
2023/04/07 07:34:37;;;;;;;;;4.00;4.00;;;;;20.33;51.12;101000.48;110213;1264;18446;-44
2023/04/07 07:37:04;;;;;;;;;5.00;4.00;;;;;20.32;51.23;101002.23;110266;1264;19554;-41
2023/04/07 07:39:32;;;;;;;;;4.00;4.00;;;;;20.28;51.40;101009.73;110274;1264;20912;-42
2023/04/07 07:42:00;;;;;;;;;4.00;2.00;;;;;20.28;51.47;101009.85;110267;1264;22376;-43
2023/04/07 07:44:27;;;;;;;;;4.00;4.00;;;;;20.31;51.49;101009.91;110237;1251;22495;-41
2023/04/07 07:46:55;;;;;;;;;4.00;4.00;;;;;20.32;51.50;101013.98;110214;1264;20727;-42
2023/04/07 07:49:22;;;;;;;;;6.00;5.00;;;;;20.32;51.66;101018.69;110198;1251;19608;-42
2023/04/07 07:51:50;;;;;;;;;5.00;5.00;;;;;20.30;51.32;101014.27;110210;1264;20341;-42
2023/04/07 07:54:17;;;;;;;;;5.00;5.00;;;;;20.26;51.33;101013.37;110185;1250;19342;-41
2023/04/07 07:56:44;;;;;;;;;7.00;7.00;;;;;20.23;51.10;101018.41;110228;1264;19330;-41
2023/04/07 07:59:12;;;;;;;;;8.00;8.00;;;;;20.21;50.44;101020.45;110193;1257;22613;-41
2023/04/07 08:01:39;;;;;;;;;8.33;7.00;;;;;20.18;49.86;101022.10;110201;1264;20727;-41
2023/04/07 08:04:07;;;;;;;;;8.00;7.00;;;;;20.15;49.67;101019.80;110179;1251;19608;-40
2023/04/07 08:06:35;;;;;;;;;20.50;15.50;;;;;20.16;49.69;101020.48;110218;1251;20143;-40
2023/04/07 08:09:02;;;;;;;;;83.00;61.00;;;;;20.16;49.69;101022.58;110203;1264;19242;-42
2023/04/07 08:11:30;;;;;;;;;98.00;74.00;;;;;20.18;50.00;101017.34;110207;1264;18547;-42
2023/04/07 08:13:57;;;;;;;;;90.50;67.00;;;;;20.19;50.16;101027.88;110200;1264;20085;-40
2023/04/07 08:16:25;;;;;;;;;90.00;67.00;;;;;20.16;50.17;101019.40;110176;1264;20923;-41
2023/04/07 08:18:53;;;;;;;;;77.00;58.00;;;;;20.15;50.23;101028.95;110202;1264;21010;-41
2023/04/07 08:21:20;;;;;;;;;74.00;56.00;;;;;20.18;50.15;101021.14;110194;1264;18956;-40
2023/04/07 08:23:48;;;;;;;;;66.00;50.50;;;;;20.22;50.38;101019.45;110190;1251;23194;-40
2023/04/07 08:26:15;;;;;;;;;56.33;46.00;;;;;20.25;50.38;101022.89;110150;1264;18598;-40
2023/04/07 08:28:43;;;;;;;;;43.00;40.00;;;;;20.26;50.70;101019.50;109950;1251;248667;-43
2023/04/07 08:31:10;;;;;;;;;51.00;39.00;;;;;20.28;50.73;101024.72;110152;1251;20777;-41
2023/04/07 08:33:38;;;;;;;;;41.50;37.00;;;;;20.29;50.77;101023.05;110235;1250;18577;-40
2023/04/07 08:36:05;;;;;;;;;36.50;30.00;;;;;20.30;50.86;101020.73;110278;1250;19979;-40
2023/04/07 08:38:32;;;;;;;;;26.00;25.00;;;;;20.31;51.12;101022.67;110202;1264;22046;-40
2023/04/07 08:41:00;;;;;;;;;30.50;22.50;;;;;20.32;51.15;101024.88;110177;1264;18693;-40
2023/04/07 08:43:27;;;;;;;;;27.00;20.00;;;;;20.31;51.39;101020.05;110178;1264;22780;-40
2023/04/07 08:45:55;;;;;;;;;28.00;22.00;;;;;20.33;51.36;101020.58;110197;1252;20721;-41
2023/04/07 08:48:22;;;;;;;;;28.50;21.50;;;;;20.34;51.76;101020.73;110193;1250;20498;-42
2023/04/07 08:50:51;;;;;;;;;19.00;16.00;;;;;20.33;51.51;101014.78;110224;1264;18740;-41
2023/04/07 08:53:18;;;;;;;;;25.00;20.00;;;;;20.34;51.56;101015.41;110242;1251;20830;-40
2023/04/07 08:55:46;;;;;;;;;17.00;16.00;;;;;20.35;51.64;101016.55;110176;1264;18561;-41
2023/04/07 08:58:13;;;;;;;;;16.00;14.00;;;;;20.36;51.77;101014.79;110196;1251;20150;-40
2023/04/07 09:00:41;;;;;;;;;17.00;16.00;;;;;20.35;51.85;101013.09;110194;1251;22070;-41
2023/04/07 09:03:09;;;;;;;;;17.67;14.00;;;;;20.35;51.85;101013.09;110204;1265;19008;-41
2023/04/07 09:05:36;;;;;;;;;13.50;13.00;;;;;20.35;51.70;101003.73;110160;1264;18778;-41
2023/04/07 09:08:04;;;;;;;;;21.33;17.00;;;;;20.33;51.78;101002.05;110192;1251;22109;-41
2023/04/07 09:10:31;;;;;;;;;14.67;13.67;;;;;20.32;51.76;101003.40;110184;1264;19880;-41
2023/04/07 09:12:58;;;;;;;;;16.00;13.00;;;;;20.31;51.97;101004.84;110182;1264;18726;-41
2023/04/07 09:15:26;;;;;;;;;13.00;10.50;;;;;20.31;51.99;101000.55;110183;1264;21960;-44
2023/04/07 09:17:54;;;;;;;;;13.00;10.00;;;;;20.29;51.95;100997.25;110228;1264;18621;-41
2023/04/07 09:20:21;;;;;;;;;12.00;11.00;;;;;20.29;52.05;101003.96;110200;1251;18701;-41
2023/04/07 09:22:49;;;;;;;;;10.50;10.00;;;;;20.29;52.09;101003.45;110184;1251;20578;-41
2023/04/07 09:25:16;;;;;;;;;10.00;10.00;;;;;20.28;52.07;101001.92;110206;1264;21855;-41
2023/04/07 09:27:44;;;;;;;;;10.00;8.00;;;;;20.28;52.10;100997.77;110219;1264;18729;-41
2023/04/07 09:30:11;;;;;;;;;10.50;10.00;;;;;20.27;52.09;100990.71;110200;1264;20969;-41
2023/04/07 09:32:40;;;;;;;;;10.00;7.00;;;;;20.28;51.92;100991.23;110190;1264;18542;-41
2023/04/07 09:35:07;;;;;;;;;8.00;7.00;;;;;20.27;52.03;100994.00;110182;1252;19979;-41
2023/04/07 09:37:35;;;;;;;;;10.00;8.00;;;;;20.27;51.91;100995.50;110216;1264;19319;-41
2023/04/07 09:40:02;;;;;;;;;7.00;7.00;;;;;20.27;51.84;100994.34;110185;1251;22854;-42
2023/04/07 09:42:31;;;;;;;;;8.00;7.50;;;;;20.28;51.89;100991.06;110218;1264;19957;-40
2023/04/07 09:44:59;;;;;;;;;9.00;7.00;;;;;20.26;51.71;100992.84;110201;1256;22254;-40
2023/04/07 09:47:27;;;;;;;;;9.00;5.00;;;;;20.26;51.70;100988.27;110223;1264;21855;-40
2023/04/07 09:49:55;;;;;;;;;10.00;8.00;;;;;20.29;51.83;100985.48;110232;1264;19870;-41
2023/04/07 09:52:22;;;;;;;;;6.00;4.50;;;;;20.30;51.73;100991.54;110208;1264;19368;-41
2023/04/07 09:54:50;;;;;;;;;5.50;5.50;;;;;20.31;51.62;100989.09;110219;1264;18576;-42
2023/04/07 09:57:18;;;;;;;;;5.50;5.00;;;;;20.30;51.66;100991.91;110196;1251;20583;-42
2023/04/07 09:59:47;;;;;;;;;10.00;8.00;;;;;20.25;51.79;101000.62;110197;1264;22058;-42
2023/04/07 10:02:14;;;;;;;;;7.00;7.00;;;;;20.18;51.62;100995.02;110190;1264;18800;-42
2023/04/07 10:04:42;;;;;;;;;10.00;10.00;;;;;20.12;51.13;100989.02;110182;1264;19965;-42
2023/04/07 10:07:10;;;;;;;;;10.00;8.33;;;;;20.09;50.65;100984.37;110160;1264;22786;-42
2023/04/07 10:09:37;;;;;;;;;10.00;10.00;;;;;20.06;50.43;100986.52;110176;1249;20070;-42
2023/04/07 10:12:05;;;;;;;;;13.00;11.00;;;;;20.04;50.13;100985.48;110184;1257;23428;-42
2023/04/07 10:14:32;;;;;;;;;11.50;11.00;;;;;20.00;49.67;100989.10;110194;1264;20756;-41
2023/04/07 10:16:59;;;;;;;;;10.00;8.50;;;;;19.98;49.76;100992.24;110194;1251;18594;-42
2023/04/07 10:19:27;;;;;;;;;11.00;11.00;;;;;19.98;49.37;100995.75;110178;1264;20215;-41
2023/04/07 10:21:54;;;;;;;;;16.50;12.50;;;;;19.95;49.15;100990.09;110188;1264;20772;-41
2023/04/07 10:24:22;;;;;;;;;13.50;13.50;;;;;19.94;48.90;100985.46;110207;1264;21592;-41
2023/04/07 10:26:49;;;;;;;;;11.00;10.00;;;;;19.93;48.75;100985.95;110178;1264;18720;-42
2023/04/07 10:29:17;;;;;;;;;12.67;10.00;;;;;19.90;48.51;100978.40;110181;1251;21137;-42
2023/04/07 10:31:44;;;;;;;;;10.00;9.00;;;;;19.90;48.35;100976.33;110180;1250;22083;-42
2023/04/07 10:34:11;;;;;;;;;14.00;11.00;;;;;19.89;48.18;100970.18;110202;1264;20299;-42
2023/04/07 10:36:40;;;;;;;;;15.00;11.50;;;;;19.85;48.09;100968.26;110208;1265;19793;-42
2023/04/07 10:39:07;;;;;;;;;12.00;10.00;;;;;19.85;48.22;100971.05;110180;1251;22594;-42
2023/04/07 10:41:35;;;;;;;;;16.00;13.00;;;;;19.86;48.19;100966.42;110199;1264;20035;-42
2023/04/07 10:44:03;;;;;;;;;13.50;13.50;;;;;19.85;48.25;100961.59;110229;1250;20929;-41
2023/04/07 10:46:31;;;;;;;;;13.00;13.00;;;;;19.89;48.39;100954.80;110226;1251;20039;-42
2023/04/07 10:48:58;;;;;;;;;14.50;13.50;;;;;19.89;48.33;100954.98;110158;1250;21295;-42
2023/04/07 10:51:26;;;;;;;;;15.00;13.00;;;;;19.90;48.00;100948.73;110136;1260;20813;-40
2023/04/07 10:53:53;;;;;;;;;15.00;14.33;;;;;19.89;48.10;100943.18;110171;1250;22767;-41
2023/04/07 10:56:21;;;;;;;;;15.00;15.00;;;;;19.87;47.98;100941.48;110162;1264;18704;-40
2023/04/07 10:58:48;;;;;;;;;16.50;15.50;;;;;19.84;48.03;100941.94;110204;1264;23227;-40
2023/04/07 11:01:16;;;;;;;;;16.00;16.00;;;;;19.86;47.95;100940.12;110212;1264;19972;-41
2023/04/07 11:03:43;;;;;;;;;19.00;16.00;;;;;19.85;47.80;100937.48;110202;1264;22184;-41
2023/04/07 11:06:11;;;;;;;;;16.00;15.50;;;;;19.84;47.82;100934.73;110201;1264;21018;-41
2023/04/07 11:08:38;;;;;;;;;13.00;13.00;;;;;19.84;47.67;100936.29;110188;1264;20213;-41
2023/04/07 11:11:07;;;;;;;;;13.67;12.67;;;;;19.86;47.64;100933.90;110192;1264;18863;-41
2023/04/07 11:13:36;;;;;;;;;13.00;13.00;;;;;19.89;47.64;100936.14;110237;1264;22178;-41
2023/04/07 11:16:03;;;;;;;;;14.00;13.00;;;;;19.91;47.76;100940.58;110182;1264;22408;-41